createdAt,value
2024-01-16T00:02:14.722Z,97515.47
2024-01-16T00:04:43.677Z,97510.09
2024-01-16T00:07:12.812Z,97509.50
2024-01-16T00:09:47.978Z,97515.66
2024-01-16T00:12:17.229Z,97522.13
2024-01-16T00:14:46.193Z,97524.63
2024-01-16T00:17:15.273Z,97545.31
2024-01-16T00:19:44.194Z,97524.25
2024-01-16T00:22:17.022Z,97536.63
2024-01-16T00:24:47.781Z,97534.38
2024-01-16T00:27:16.538Z,97537.13
2024-01-16T00:29:45.644Z,97538.41
2024-01-16T00:32:17.300Z,97560.13
2024-01-16T00:34:46.764Z,97551.41
2024-01-16T00:37:15.731Z,97555.19
2024-01-16T00:39:44.825Z,97557.47
2024-01-16T00:42:15.173Z,97561.63
2024-01-16T00:44:43.992Z,97567.13
2024-01-16T00:47:12.839Z,97579.31
2024-01-16T00:49:41.782Z,97574.97
2024-01-16T00:52:10.645Z,97571.88
2024-01-16T00:54:40.020Z,97580.16
2024-01-16T00:57:08.780Z,97581.00
2024-01-16T00:59:39.714Z,97575.03
2024-01-16T01:02:11.083Z,97586.03
2024-01-16T01:04:42.556Z,97575.28
2024-01-16T01:07:11.516Z,97574.47
2024-01-16T01:09:40.524Z,97583.03
2024-01-16T01:12:09.699Z,97583.47
2024-01-16T01:14:40.036Z,97599.31
2024-01-16T01:17:08.941Z,97600.09
2024-01-16T01:19:37.839Z,97599.28
2024-01-16T01:22:06.759Z,97602.91
2024-01-16T01:24:35.768Z,97600.66
2024-01-16T01:27:05.148Z,97607.81
2024-01-16T01:29:34.042Z,97609.72
2024-01-16T01:32:04.331Z,97614.00
2024-01-16T01:34:33.133Z,97623.75
2024-01-16T01:37:06.173Z,97625.38
2024-01-16T01:39:34.822Z,97627.69
2024-01-16T01:42:03.551Z,97623.75
2024-01-16T01:44:32.305Z,97623.34
2024-01-16T01:47:01.986Z,97628.63
2024-01-16T01:49:33.697Z,97633.91
2024-01-16T01:52:02.512Z,97624.34
2024-01-16T01:54:32.505Z,97625.81
2024-01-16T01:57:01.583Z,97635.34
2024-01-16T01:59:32.158Z,97631.44
2024-01-16T02:02:01.707Z,97627.16
2024-01-16T02:04:33.679Z,97638.34
2024-01-16T02:07:02.994Z,97628.38
2024-01-16T02:09:31.933Z,97635.09
2024-01-16T02:12:00.790Z,97639.19
2024-01-16T02:14:30.256Z,97645.63
2024-01-16T02:16:58.992Z,97648.91
2024-01-16T02:19:27.804Z,97651.69
2024-01-16T02:22:02.438Z,97669.19
2024-01-16T02:24:32.791Z,97664.75
2024-01-16T02:27:01.888Z,97666.00
2024-01-16T02:29:30.652Z,97662.09
2024-01-16T02:31:59.272Z,97660.88
2024-01-16T02:34:27.964Z,97667.38
2024-01-16T02:36:57.053Z,97667.53
2024-01-16T02:39:26.240Z,97669.19
2024-01-16T02:41:56.386Z,97663.94
2024-01-16T02:44:25.182Z,97679.81
2024-01-16T02:46:53.822Z,97688.72
2024-01-16T02:49:23.197Z,97684.28
2024-01-16T02:51:52.302Z,97687.72
2024-01-16T02:54:22.950Z,97690.00
2024-01-16T02:56:52.105Z,97694.00
2024-01-16T02:59:22.317Z,97699.69
2024-01-16T03:01:51.080Z,97707.19
2024-01-16T03:04:19.812Z,97702.53
2024-01-16T03:06:48.529Z,97701.31
2024-01-16T03:09:17.240Z,97706.97
2024-01-16T03:11:45.896Z,97712.84
2024-01-16T03:14:14.694Z,97710.03
2024-01-16T03:16:45.516Z,97713.94
2024-01-16T03:19:15.103Z,97719.56
2024-01-16T03:21:43.984Z,97709.00
2024-01-16T03:24:12.853Z,97718.97
2024-01-16T03:26:41.984Z,97714.72
2024-01-16T03:29:10.874Z,97709.00
2024-01-16T03:31:39.810Z,97710.03
2024-01-16T03:34:11.761Z,97716.75
2024-01-16T03:36:40.553Z,97721.63
2024-01-16T03:39:10.157Z,97718.13
2024-01-16T03:41:39.204Z,97721.59
2024-01-16T03:44:07.975Z,97730.53
2024-01-16T03:46:36.691Z,97729.72
2024-01-16T03:49:05.509Z,97729.28
2024-01-16T03:51:35.635Z,97721.81
2024-01-16T03:54:05.399Z,97719.56
2024-01-16T03:56:34.186Z,97733.19
2024-01-16T03:59:02.863Z,97728.31
2024-01-16T04:01:37.333Z,97740.50
2024-01-16T04:04:08.046Z,97736.88
2024-01-16T04:06:39.361Z,97741.94
2024-01-16T04:09:10.566Z,97740.94
2024-01-16T04:11:39.446Z,97743.78
2024-01-16T04:14:08.166Z,97756.34
2024-01-16T04:16:37.374Z,97750.50
2024-01-16T04:19:06.188Z,97767.97
2024-01-16T04:21:34.991Z,97763.47
2024-01-16T04:24:05.769Z,97768.94
2024-01-16T04:26:34.461Z,97773.19
2024-01-16T04:29:03.490Z,97764.66
2024-01-16T04:31:32.446Z,97773.38
2024-01-16T04:34:01.165Z,97768.69
2024-01-16T04:36:29.864Z,97770.34
2024-01-16T04:39:01.106Z,97764.66
2024-01-16T04:41:31.743Z,97772.56
2024-01-16T04:44:00.540Z,97777.25
2024-01-16T04:46:29.240Z,97782.53
2024-01-16T04:48:58.152Z,97786.34
2024-01-16T04:51:26.857Z,97792.44
2024-01-16T04:53:55.593Z,97790.03
2024-01-16T04:56:24.315Z,97792.06
2024-01-16T04:58:54.521Z,97789.41
2024-01-16T05:01:23.172Z,97804.28
2024-01-16T05:03:52.046Z,97801.66
2024-01-16T05:06:21.035Z,97805.28
2024-01-16T05:08:50.106Z,97796.94
2024-01-16T05:11:18.981Z,97799.19
2024-01-16T05:13:47.682Z,97811.38
2024-01-16T05:16:17.808Z,97809.34
2024-01-16T05:18:50.381Z,97800.22
2024-01-16T05:21:20.363Z,97803.25
2024-01-16T05:23:49.897Z,97813.22
2024-01-16T05:26:19.266Z,97808.16
2024-01-16T05:28:48.609Z,97824.78
2024-01-16T05:31:20.845Z,97825.41
2024-01-16T05:33:50.529Z,97823.16
2024-01-16T05:36:20.843Z,97823.81
2024-01-16T05:38:51.663Z,97824.81
2024-01-16T05:41:21.275Z,97826.25
2024-01-16T05:43:50.448Z,97823.81
2024-01-16T05:46:21.378Z,97829.50
2024-01-16T05:48:50.228Z,97826.84
2024-01-16T05:51:19.220Z,97834.19
2024-01-16T05:53:48.043Z,97832.72
2024-01-16T05:56:16.876Z,97835.78
2024-01-16T05:58:45.617Z,97844.13
2024-01-16T06:01:15.016Z,97851.41
2024-01-16T06:03:47.494Z,97846.94
2024-01-16T06:06:16.214Z,97858.72
2024-01-16T06:08:45.056Z,97853.22
2024-01-16T06:11:15.295Z,97853.22
2024-01-16T06:13:47.905Z,97858.09
2024-01-16T06:16:16.591Z,97864.59
2024-01-16T06:18:46.928Z,97865.22
2024-01-16T06:21:17.831Z,97861.75
2024-01-16T06:23:46.757Z,97864.00
2024-01-16T06:26:15.716Z,97867.88
2024-01-16T06:28:44.475Z,97866.66
2024-01-16T06:31:13.991Z,97868.88
2024-01-16T06:33:42.889Z,97870.69
2024-01-16T06:36:13.201Z,97879.63
2024-01-16T06:38:42.602Z,97888.56
2024-01-16T06:41:11.590Z,97884.31
2024-01-16T06:43:40.655Z,97885.34
2024-01-16T06:46:09.482Z,97887.56
2024-01-16T06:48:39.182Z,97884.53
2024-01-16T06:51:09.142Z,97896.50
2024-01-16T06:53:39.762Z,97885.34
2024-01-16T06:56:10.087Z,97907.84
2024-01-16T06:58:38.954Z,97905.22
2024-01-16T07:01:09.078Z,97907.25
2024-01-16T07:03:37.793Z,97915.97
2024-01-16T07:06:07.185Z,97922.88
2024-01-16T07:08:37.005Z,97923.31
2024-01-16T07:11:09.873Z,97932.63
2024-01-16T07:13:38.618Z,97939.75
2024-01-16T07:16:07.620Z,97942.16
2024-01-16T07:18:36.434Z,97950.91
2024-01-16T07:21:05.462Z,97954.13
2024-01-16T07:23:34.262Z,97955.97
2024-01-16T07:26:05.544Z,97953.53
2024-01-16T07:28:35.860Z,97964.69
2024-01-16T07:31:04.632Z,97966.94
2024-01-16T07:33:33.428Z,97962.91
2024-01-16T07:36:02.388Z,97971.41
2024-01-16T07:38:31.218Z,97985.22
2024-01-16T07:41:00.157Z,97977.28
2024-01-16T07:43:30.264Z,97983.16
2024-01-16T07:46:00.830Z,97984.00
2024-01-16T07:48:30.711Z,98004.91
2024-01-16T07:50:59.544Z,97990.91
2024-01-16T07:53:29.648Z,98003.09
2024-01-16T07:55:58.538Z,97999.63
2024-01-16T07:58:27.449Z,98000.66
2024-01-16T08:00:56.336Z,98012.03
2024-01-16T08:03:26.945Z,98014.47
2024-01-16T08:05:56.124Z,98010.41
2024-01-16T08:08:25.012Z,98017.31
2024-01-16T08:10:53.777Z,98022.38
2024-01-16T08:13:22.503Z,98033.38
2024-01-16T08:15:51.372Z,98032.13
2024-01-16T08:18:20.253Z,98033.16
2024-01-16T08:20:50.587Z,98037.63
2024-01-16T08:23:19.350Z,98034.19
2024-01-16T08:25:49.120Z,98031.75
2024-01-16T08:28:19.838Z,98032.75
2024-01-16T08:30:50.007Z,98036.81
2024-01-16T08:33:20.060Z,98026.25
2024-01-16T08:35:53.598Z,98037.63
2024-01-16T08:38:23.197Z,98039.66
2024-01-16T08:40:51.876Z,98035.59
2024-01-16T08:43:20.621Z,98046.78
2024-01-16T08:45:49.414Z,98043.72
2024-01-16T08:48:18.217Z,98046.56
2024-01-16T08:50:47.839Z,98047.38
2024-01-16T08:53:18.039Z,98051.47
2024-01-16T08:55:46.728Z,98042.09
2024-01-16T08:58:16.291Z,98051.84
2024-01-16T09:00:45.114Z,98050.81
2024-01-16T09:03:14.984Z,98055.94
2024-01-16T09:05:44.808Z,98059.97
2024-01-16T09:08:14.148Z,98053.06
2024-01-16T09:10:44.557Z,98061.59
2024-01-16T09:13:14.029Z,98059.19
2024-01-16T09:15:42.761Z,98068.50
2024-01-16T09:18:11.580Z,98066.88
2024-01-16T09:20:40.681Z,98066.88
2024-01-16T09:23:09.524Z,98071.56
2024-01-16T09:25:38.748Z,98075.41
2024-01-16T09:28:09.365Z,98079.47
2024-01-16T09:30:38.022Z,98077.81
2024-01-16T09:33:08.471Z,98078.44
2024-01-16T09:35:37.348Z,98070.69
2024-01-16T09:38:07.252Z,98070.13
2024-01-16T09:40:37.054Z,98075.41
2024-01-16T09:43:06.538Z,98076.59
2024-01-16T09:45:40.364Z,98072.34
2024-01-16T09:48:11.615Z,98075.22
2024-01-16T09:50:40.768Z,98081.28
2024-01-16T09:53:09.879Z,98090.84
2024-01-16T09:55:38.693Z,98075.78
2024-01-16T09:58:13.674Z,98077.84
2024-01-16T10:00:46.208Z,98081.91
2024-01-16T10:03:16.994Z,98072.34
2024-01-16T10:05:47.210Z,98075.38
2024-01-16T10:08:16.078Z,98068.25
2024-01-16T10:10:49.013Z,98065.56
2024-01-16T10:13:20.196Z,98067.59
2024-01-16T10:15:56.339Z,98067.19
2024-01-16T10:18:26.730Z,98068.06
2024-01-16T10:20:56.092Z,98068.41
2024-01-16T10:23:29.508Z,98069.66
2024-01-16T10:26:09.072Z,98074.13
2024-01-16T10:28:39.399Z,98076.97
2024-01-16T10:31:11.618Z,98078.56
2024-01-16T10:33:41.287Z,98077.38
2024-01-16T10:36:17.484Z,98090.19
2024-01-16T10:38:48.124Z,98084.28
2024-01-16T10:41:19.965Z,98086.53
2024-01-16T10:43:48.740Z,98092.03
2024-01-16T10:46:21.987Z,98092.84
2024-01-16T10:49:03.021Z,98091.19
2024-01-16T10:51:32.935Z,98092.44
2024-01-16T10:54:04.986Z,98096.16
2024-01-16T10:56:34.839Z,98089.41
2024-01-16T10:59:21.072Z,98083.72
2024-01-16T11:01:55.788Z,98086.78
2024-01-16T11:04:26.293Z,98090.63
2024-01-16T11:06:56.430Z,98079.41
2024-01-16T11:09:27.134Z,98076.94
2024-01-16T11:11:57.810Z,98075.72
2024-01-16T11:14:29.401Z,98081.44
2024-01-16T11:17:02.346Z,98078.78
2024-01-16T11:19:43.107Z,98084.63
2024-01-16T11:22:22.152Z,98083.84
2024-01-16T11:25:11.419Z,98083.84
2024-01-16T11:27:40.886Z,98085.06
2024-01-16T11:30:12.618Z,98072.47
2024-01-16T11:32:45.412Z,98072.63
2024-01-16T11:35:14.357Z,98079.78
2024-01-16T11:37:45.231Z,98084.63
2024-01-16T11:40:25.672Z,98075.28
2024-01-16T11:42:56.180Z,98080.72
2024-01-16T11:45:54.578Z,98073.38
2024-01-16T11:48:24.965Z,98082.09
2024-01-16T11:50:55.392Z,98070.69
2024-01-16T11:53:41.784Z,98073.91
2024-01-16T11:57:02.482Z,98075.97
2024-01-16T12:00:08.452Z,98078.84
2024-01-16T12:02:55.318Z,98072.13
2024-01-16T12:05:25.892Z,98068.81
2024-01-16T12:07:56.288Z,98073.91
2024-01-16T12:10:27.113Z,98068.25
2024-01-16T12:13:05.473Z,98072.34
2024-01-16T12:15:35.178Z,98067.50
2024-01-16T12:18:06.183Z,98078.50
2024-01-16T12:20:38.862Z,98067.28
2024-01-16T12:23:10.770Z,98070.78
2024-01-16T12:26:01.268Z,98078.94
2024-01-16T12:28:32.983Z,98072.63
2024-01-16T12:31:04.414Z,98073.19
2024-01-16T12:33:33.845Z,98073.56
2024-01-16T12:36:07.702Z,98067.69
2024-01-16T12:38:37.010Z,98079.28
2024-01-16T12:41:10.827Z,98077.19
2024-01-16T12:43:40.070Z,98070.69
2024-01-16T12:46:09.033Z,98071.13
2024-01-16T12:48:47.378Z,98072.28
2024-01-16T12:51:26.510Z,98060.78
2024-01-16T12:53:55.325Z,98056.28
2024-01-16T12:56:34.957Z,98054.81
2024-01-16T12:59:13.753Z,98044.22
2024-01-16T13:01:47.824Z,98049.16
2024-01-16T13:04:20.592Z,98048.25
2024-01-16T13:06:51.627Z,98045.75
2024-01-16T13:09:27.341Z,98048.63
2024-01-16T13:11:59.956Z,98050.66
2024-01-16T13:14:29.047Z,98052.44
2024-01-16T13:16:58.520Z,98053.78
2024-01-16T13:19:27.730Z,98055.28
2024-01-16T13:21:58.279Z,98050.28
2024-01-16T13:24:27.193Z,98047.09
2024-01-16T13:26:56.115Z,98044.59
2024-01-16T13:29:25.012Z,98042.53
2024-01-16T13:31:56.820Z,98048.84
2024-01-16T13:34:26.942Z,98041.59
2024-01-16T13:37:15.176Z,98040.44
2024-01-16T13:39:45.924Z,98045.72
2024-01-16T13:42:19.389Z,98048.09
2024-01-16T13:44:49.342Z,98048.09
2024-01-16T13:47:23.102Z,98046.47
2024-01-16T13:49:52.952Z,98054.16
2024-01-16T13:52:26.686Z,98050.06
2024-01-16T13:54:58.532Z,98050.41
2024-01-16T13:57:27.257Z,98051.41
2024-01-16T13:59:56.317Z,98054.84
2024-01-16T14:02:25.861Z,98046.31
2024-01-16T14:04:55.331Z,98050.41
2024-01-16T14:07:26.114Z,98039.81
2024-01-16T14:09:56.033Z,98048.00
2024-01-16T14:12:26.802Z,98052.84
2024-01-16T14:14:57.168Z,98040.41
2024-01-16T14:17:27.483Z,98046.28
2024-01-16T14:19:56.443Z,98043.69
2024-01-16T14:22:28.039Z,98045.91
2024-01-16T14:24:57.243Z,98039.81
2024-01-16T14:27:27.014Z,98041.94
2024-01-16T14:29:56.640Z,98041.75
2024-01-16T14:32:25.997Z,98041.59
2024-01-16T14:34:55.213Z,98041.66
2024-01-16T14:37:27.254Z,98040.47
2024-01-16T14:39:56.123Z,98055.19
2024-01-16T14:42:26.837Z,98049.09
2024-01-16T14:44:56.346Z,98053.78
2024-01-16T14:47:25.777Z,98059.28
2024-01-16T14:49:56.477Z,98052.81
2024-01-16T14:52:26.893Z,98055.28
2024-01-16T14:54:55.582Z,98054.94
2024-01-16T14:57:24.593Z,98052.09
2024-01-16T14:59:53.989Z,98042.34
2024-01-16T15:02:23.647Z,98045.84
2024-01-16T15:04:53.084Z,98054.97
2024-01-16T15:07:22.046Z,98049.31
2024-01-16T15:09:52.449Z,98049.34
2024-01-16T15:12:22.262Z,98053.59
2024-01-16T15:14:51.281Z,98050.38
2024-01-16T15:17:23.799Z,98052.41
2024-01-16T15:19:54.259Z,98048.94
2024-01-16T15:22:24.004Z,98049.75
2024-01-16T15:24:56.056Z,98053.44
2024-01-16T15:27:25.804Z,98059.94
2024-01-16T15:29:57.919Z,98056.47
2024-01-16T15:32:27.127Z,98055.09
2024-01-16T15:34:56.710Z,98060.97
2024-01-16T15:37:26.629Z,98063.22
2024-01-16T15:39:57.984Z,98062.81
2024-01-16T15:42:28.886Z,98065.66
2024-01-16T15:45:02.048Z,98062.00
2024-01-16T15:47:31.101Z,98063.22
2024-01-16T15:50:00.101Z,98064.44
2024-01-16T15:52:29.518Z,98059.38
2024-01-16T15:55:00.068Z,98062.00
2024-01-16T15:57:29.790Z,98053.88
2024-01-16T15:59:59.640Z,98059.97
2024-01-16T16:02:29.791Z,98070.94
2024-01-16T16:04:59.519Z,98066.06
2024-01-16T16:07:28.915Z,98067.31
2024-01-16T16:10:00.031Z,98075.41
2024-01-16T16:12:29.337Z,98076.22
2024-01-16T16:14:58.265Z,98079.06
2024-01-16T16:17:27.373Z,98074.59
2024-01-16T16:19:56.421Z,98082.13
2024-01-16T16:22:26.239Z,98082.72
2024-01-16T16:24:56.125Z,98088.41
2024-01-16T16:27:30.261Z,98088.63
2024-01-16T16:30:00.071Z,98087.81
2024-01-16T16:32:29.473Z,98087.59
2024-01-16T16:35:00.025Z,98094.09
2024-01-16T16:37:28.806Z,98086.41
2024-01-16T16:39:57.737Z,98090.44
2024-01-16T16:42:28.576Z,98094.91
2024-01-16T16:44:57.938Z,98093.91
2024-01-16T16:47:27.128Z,98098.38
2024-01-16T16:49:56.170Z,98099.59
2024-01-16T16:52:25.362Z,98097.56
2024-01-16T16:54:54.060Z,98097.78
2024-01-16T16:57:23.513Z,98103.28
2024-01-16T16:59:53.706Z,98103.88
2024-01-16T17:02:23.795Z,98099.41
2024-01-16T17:04:52.850Z,98095.13
2024-01-16T17:07:22.285Z,98106.72
2024-01-16T17:09:51.048Z,98096.75
2024-01-16T17:12:20.025Z,98102.03
2024-01-16T17:14:48.780Z,98101.22
2024-01-16T17:17:18.937Z,98103.06
2024-01-16T17:19:48.697Z,98103.66
2024-01-16T17:22:17.384Z,98106.50
2024-01-16T17:24:48.548Z,98117.69
2024-01-16T17:27:18.026Z,98110.38
2024-01-16T17:29:46.824Z,98109.97
2024-01-16T17:32:15.673Z,98099.41
2024-01-16T17:34:47.630Z,98106.94
2024-01-16T17:37:17.637Z,98099.81
2024-01-16T17:39:47.384Z,98104.28
2024-01-16T17:42:16.484Z,98105.91
2024-01-16T17:44:52.304Z,98104.09
2024-01-16T17:47:22.746Z,98102.63
2024-01-16T17:49:53.924Z,98104.69
2024-01-16T17:52:26.927Z,98099.59
2024-01-16T17:54:55.809Z,98102.47
2024-01-16T17:57:24.848Z,98099.81
2024-01-16T17:59:53.851Z,98098.16
2024-01-16T18:02:23.451Z,98107.53
2024-01-16T18:04:54.053Z,98115.59
2024-01-16T18:07:22.921Z,98111.13
2024-01-16T18:09:51.782Z,98116.00
2024-01-16T18:12:22.690Z,98122.88
2024-01-16T18:14:52.702Z,98126.72
2024-01-16T18:17:23.004Z,98121.22
2024-01-16T18:19:53.989Z,98119.59
2024-01-16T18:22:24.403Z,98127.47
2024-01-16T18:24:54.214Z,98127.91
2024-01-16T18:27:24.355Z,98127.22
2024-01-16T18:29:53.342Z,98133.84
2024-01-16T18:32:22.774Z,98138.09
2024-01-16T18:34:52.135Z,98136.91
2024-01-16T18:37:23.073Z,98135.28
2024-01-16T18:39:52.022Z,98138.06
2024-01-16T18:42:23.724Z,98139.28
2024-01-16T18:44:52.975Z,98122.34
2024-01-16T18:47:22.342Z,98126.19
2024-01-16T18:49:51.176Z,98129.38
2024-01-16T18:52:21.447Z,98121.28
2024-01-16T18:54:50.472Z,98130.59
2024-01-16T18:57:19.585Z,98123.22
2024-01-16T18:59:48.561Z,98119.03
2024-01-16T19:02:22.106Z,98123.03
2024-01-16T19:04:51.742Z,98132.22
2024-01-16T19:07:24.593Z,98132.97
2024-01-16T19:09:53.368Z,98124.81
2024-01-16T19:12:22.385Z,98126.13
2024-01-16T19:14:51.087Z,98132.09
2024-01-16T19:17:20.033Z,98127.34
2024-01-16T19:19:48.876Z,98128.50
2024-01-16T19:22:23.525Z,98121.06
2024-01-16T19:24:52.738Z,98122.34
2024-01-16T19:27:22.401Z,98119.69
2024-01-16T19:29:51.427Z,98120.16
2024-01-16T19:32:20.385Z,98115.59
2024-01-16T19:34:49.455Z,98117.31
2024-01-16T19:37:18.420Z,98110.97
2024-01-16T19:39:48.728Z,98116.66
2024-01-16T19:42:17.526Z,98104.97
2024-01-16T19:44:50.583Z,98111.59
2024-01-16T19:47:21.811Z,98104.66
2024-01-16T19:49:50.546Z,98120.63
2024-01-16T19:52:19.998Z,98119.56
2024-01-16T19:54:50.307Z,98110.78
2024-01-16T19:57:19.446Z,98109.28
2024-01-16T19:59:48.429Z,98110.53
2024-01-16T20:02:18.579Z,98103.03
2024-01-16T20:04:50.134Z,98103.13
2024-01-16T20:07:20.144Z,98107.63
2024-01-16T20:09:50.373Z,98107.97
2024-01-16T20:14:49.321Z,98101.63
2024-01-16T20:17:20.791Z,98100.81
2024-01-16T20:19:49.587Z,98099.38
2024-01-16T20:22:18.297Z,98101.81
2024-01-16T20:24:49.440Z,98098.38
2024-01-16T20:27:19.088Z,98104.09
2024-01-16T20:29:47.874Z,98093.03
2024-01-16T20:32:16.649Z,98095.59
2024-01-16T20:34:45.819Z,98096.78
2024-01-16T20:37:15.861Z,98101.59
2024-01-16T20:39:44.793Z,98094.06
2024-01-16T20:42:14.917Z,98095.16
2024-01-16T20:44:43.767Z,98098.88
2024-01-16T20:47:12.530Z,98097.97
2024-01-16T20:49:41.423Z,98104.03
2024-01-16T20:52:10.276Z,98096.81
2024-01-16T20:54:40.709Z,98099.78
2024-01-16T20:57:10.743Z,98094.91
2024-01-16T20:59:41.184Z,98093.97
2024-01-16T21:02:09.906Z,98089.72
2024-01-16T21:04:38.737Z,98093.06
2024-01-16T21:07:07.797Z,98096.25
2024-01-16T21:09:36.814Z,98099.13
2024-01-16T21:12:06.376Z,98094.59
2024-01-16T21:14:35.588Z,98087.91
2024-01-16T21:17:08.663Z,98089.69
2024-01-16T21:19:37.657Z,98087.66
2024-01-16T21:22:07.555Z,98086.66
2024-01-16T21:24:37.030Z,98085.41
2024-01-16T21:27:06.521Z,98084.88
2024-01-16T21:29:35.316Z,98077.34
2024-01-16T21:32:05.817Z,98085.25
2024-01-16T21:34:37.622Z,98090.41
2024-01-16T21:37:07.023Z,98075.03
2024-01-16T21:39:36.577Z,98075.13
2024-01-16T21:42:06.131Z,98080.78
2024-01-16T21:44:35.462Z,98076.06
2024-01-16T21:47:12.320Z,98076.66
2024-01-16T21:49:42.556Z,98072.69
2024-01-16T21:52:11.320Z,98080.56
2024-01-16T21:54:41.258Z,98087.47
2024-01-16T21:57:10.478Z,98084.00
2024-01-16T21:59:40.514Z,98085.16
2024-01-16T22:02:10.989Z,98085.09
2024-01-16T22:04:42.755Z,98084.09
2024-01-16T22:07:12.081Z,98092.97
2024-01-16T22:09:40.888Z,98088.78
2024-01-16T22:12:15.795Z,98093.06
2024-01-16T22:14:46.288Z,98094.41
2024-01-16T22:17:15.638Z,98086.19
2024-01-16T22:19:45.849Z,98080.59
2024-01-16T22:22:14.806Z,98082.56
2024-01-16T22:24:50.807Z,98071.38
2024-01-16T22:27:20.370Z,98070.56
2024-01-16T22:29:49.334Z,98069.25
2024-01-16T22:32:22.246Z,98071.50
2024-01-16T22:35:00.012Z,98073.81
2024-01-16T22:37:31.054Z,98054.28
2024-01-16T22:39:59.913Z,98051.34
2024-01-16T22:42:28.697Z,98053.19
2024-01-16T22:44:57.592Z,98044.00
2024-01-16T22:47:26.476Z,98039.69
2024-01-16T22:49:55.276Z,98039.44
2024-01-16T22:52:25.446Z,98039.50
2024-01-16T22:54:54.390Z,98028.78
2024-01-16T22:57:23.294Z,98019.50
2024-01-16T22:59:52.645Z,98014.88
2024-01-16T23:02:21.512Z,98009.72
2024-01-16T23:04:51.645Z,97996.16
2024-01-16T23:07:22.123Z,97998.09
2024-01-16T23:09:52.520Z,97993.88
2024-01-16T23:12:21.647Z,97980.75
2024-01-16T23:14:50.878Z,97971.78
2024-01-16T23:17:19.778Z,97963.94
2024-01-16T23:19:48.754Z,97966.06
2024-01-16T23:22:17.694Z,97961.38
2024-01-16T23:24:46.535Z,97955.53
2024-01-16T23:27:16.853Z,97954.44
2024-01-16T23:29:50.756Z,97942.53
2024-01-16T23:32:28.843Z,97934.88
2024-01-16T23:34:57.697Z,97930.44
2024-01-16T23:37:31.235Z,97930.44
2024-01-16T23:40:02.243Z,97925.72
2024-01-16T23:42:32.928Z,97922.00
2024-01-16T23:45:07.883Z,97913.09
2024-01-16T23:47:48.594Z,97910.06
2024-01-16T23:50:18.550Z,97911.81
2024-01-16T23:52:47.705Z,97903.56
2024-01-16T23:55:16.786Z,97915.44
2024-01-16T23:57:47.477Z,97906.47
